sensor_id;sensor_type;location;lat;lon;timestamp;pressure;altitude;pressure_sealevel;temperature;humidity
81125;BME280;72192;52.114;5.424;2023-08-17T00:01:58;102213.63;;;17.19;77.90
81125;BME280;72192;52.114;5.424;2023-08-17T00:04:46;102214.66;;;17.18;78.59
81125;BME280;72192;52.114;5.424;2023-08-17T00:07:35;102217.56;;;17.17;78.38
81125;BME280;72192;52.114;5.424;2023-08-17T00:10:23;102204.63;;;17.11;78.95
81125;BME280;72192;52.114;5.424;2023-08-17T00:13:12;102211.78;;;17.12;78.53
81125;BME280;72192;52.114;5.424;2023-08-17T00:16:01;102212.97;;;17.09;79.10
81125;BME280;72192;52.114;5.424;2023-08-17T00:18:49;102210.41;;;17.08;79.32
81125;BME280;72192;52.114;5.424;2023-08-17T00:21:37;102211.44;;;17.07;78.94
81125;BME280;72192;52.114;5.424;2023-08-17T00:24:25;102208.69;;;17.07;79.35
81125;BME280;72192;52.114;5.424;2023-08-17T00:27:13;102210.09;;;17.03;79.48
81125;BME280;72192;52.114;5.424;2023-08-17T00:30:02;102206.81;;;16.99;79.16
81125;BME280;72192;52.114;5.424;2023-08-17T00:32:50;102211.44;;;16.99;79.45
81125;BME280;72192;52.114;5.424;2023-08-17T00:35:38;102204.81;;;16.93;79.70
81125;BME280;72192;52.114;5.424;2023-08-17T00:38:27;102200.53;;;16.90;79.73
81125;BME280;72192;52.114;5.424;2023-08-17T00:41:15;102203.78;;;16.86;80.15
81125;BME280;72192;52.114;5.424;2023-08-17T00:44:03;102211.13;;;16.85;79.07
81125;BME280;72192;52.114;5.424;2023-08-17T00:46:52;102201.59;;;16.81;79.99
81125;BME280;72192;52.114;5.424;2023-08-17T00:49:40;102202.94;;;16.77;80.24
81125;BME280;72192;52.114;5.424;2023-08-17T00:52:30;102193.38;;;16.73;80.24
81125;BME280;72192;52.114;5.424;2023-08-17T00:55:20;102202.25;;;16.75;80.78
81125;BME280;72192;52.114;5.424;2023-08-17T00:58:09;102200.56;;;16.74;80.71
81125;BME280;72192;52.114;5.424;2023-08-17T01:00:57;102197.47;;;16.69;80.74
81125;BME280;72192;52.114;5.424;2023-08-17T01:03:46;102200.34;;;16.68;80.46
81125;BME280;72192;52.114;5.424;2023-08-17T01:06:34;102196.63;;;16.69;80.72
81125;BME280;72192;52.114;5.424;2023-08-17T01:09:22;102204.63;;;16.70;80.76
81125;BME280;72192;52.114;5.424;2023-08-17T01:12:20;102204.63;;;16.70;80.65
81125;BME280;72192;52.114;5.424;2023-08-17T01:15:18;102212.13;;;16.68;80.66
81125;BME280;72192;52.114;5.424;2023-08-17T01:18:40;102203.59;;;16.71;80.19
81125;BME280;72192;52.114;5.424;2023-08-17T01:21:37;102190.44;;;16.67;80.14
81125;BME280;72192;52.114;5.424;2023-08-17T01:24:32;102188.06;;;16.63;80.90
81125;BME280;72192;52.114;5.424;2023-08-17T01:27:20;102176.63;;;16.60;80.34
81125;BME280;72192;52.114;5.424;2023-08-17T01:30:08;102188.06;;;16.63;80.01
81125;BME280;72192;52.114;5.424;2023-08-17T01:33:08;102190.63;;;16.65;80.11
81125;BME280;72192;52.114;5.424;2023-08-17T01:36:18;102184.16;;;16.66;80.30
81125;BME280;72192;52.114;5.424;2023-08-17T01:39:17;102190.44;;;16.67;80.24
81125;BME280;72192;52.114;5.424;2023-08-17T01:42:07;102185.00;;;16.67;80.48
81125;BME280;72192;52.114;5.424;2023-08-17T01:44:58;102189.94;;;16.63;80.26
81125;BME280;72192;52.114;5.424;2023-08-17T01:47:46;102190.09;;;16.61;80.15
81125;BME280;72192;52.114;5.424;2023-08-17T01:50:36;102182.09;;;16.60;80.52
81125;BME280;72192;52.114;5.424;2023-08-17T01:53:24;102191.97;;;16.61;80.65
81125;BME280;72192;52.114;5.424;2023-08-17T01:56:12;102181.41;;;16.58;80.50
81125;BME280;72192;52.114;5.424;2023-08-17T01:59:00;102178.00;;;16.56;80.63
81125;BME280;72192;52.114;5.424;2023-08-17T02:01:48;102185.34;;;16.55;80.37
81125;BME280;72192;52.114;5.424;2023-08-17T02:04:37;102179.88;;;16.55;80.25
81125;BME280;72192;52.114;5.424;2023-08-17T02:07:25;102176.47;;;16.53;80.88
81125;BME280;72192;52.114;5.424;2023-08-17T02:10:13;102170.84;;;16.47;80.83
81125;BME280;72192;52.114;5.424;2023-08-17T02:13:01;102178.34;;;16.45;81.21
81125;BME280;72192;52.114;5.424;2023-08-17T02:15:49;102180.72;;;16.40;81.40
81125;BME280;72192;52.114;5.424;2023-08-17T02:18:37;102178.69;;;16.33;81.31
81125;BME280;72192;52.114;5.424;2023-08-17T02:21:25;102195.53;;;16.29;81.25
81125;BME280;72192;52.114;5.424;2023-08-17T02:24:13;102190.25;;;16.27;81.68
81125;BME280;72192;52.114;5.424;2023-08-17T02:27:02;102190.41;;;16.26;81.76
81125;BME280;72192;52.114;5.424;2023-08-17T02:29:50;102183.94;;;16.27;82.17
81125;BME280;72192;52.114;5.424;2023-08-17T02:32:38;102184.63;;;16.29;81.56
81125;BME280;72192;52.114;5.424;2023-08-17T02:35:27;102178.31;;;16.28;82.00
81125;BME280;72192;52.114;5.424;2023-08-17T02:38:14;102175.75;;;16.27;81.33
81125;BME280;72192;52.114;5.424;2023-08-17T02:41:03;102180.38;;;16.26;81.41
81125;BME280;72192;52.114;5.424;2023-08-17T02:43:51;102171.16;;;16.27;81.84
81125;BME280;72192;52.114;5.424;2023-08-17T02:46:39;102170.31;;;16.27;81.85
81125;BME280;72192;52.114;5.424;2023-08-17T02:49:19;102160.25;;;16.27;81.97
81125;BME280;72192;52.114;5.424;2023-08-17T02:52:07;102164.84;;;16.27;81.78
81125;BME280;72192;52.114;5.424;2023-08-17T02:54:55;102158.72;;;16.25;81.53
81125;BME280;72192;52.114;5.424;2023-08-17T02:57:43;102162.31;;;16.25;81.80
81125;BME280;72192;52.114;5.424;2023-08-17T03:00:31;102165.72;;;16.27;81.81
81125;BME280;72192;52.114;5.424;2023-08-17T03:03:19;102162.97;;;16.27;82.00
81125;BME280;72192;52.114;5.424;2023-08-17T03:06:07;102163.16;;;16.26;81.69
81125;BME280;72192;52.114;5.424;2023-08-17T03:08:55;102161.47;;;16.25;81.78
81125;BME280;72192;52.114;5.424;2023-08-17T03:11:44;102158.91;;;16.23;82.20
81125;BME280;72192;52.114;5.424;2023-08-17T03:14:32;102155.47;;;16.21;82.22
81125;BME280;72192;52.114;5.424;2023-08-17T03:17:20;102163.66;;;16.21;81.88
81125;BME280;72192;52.114;5.424;2023-08-17T03:20:09;102164.34;;;16.23;81.99
81125;BME280;72192;52.114;5.424;2023-08-17T03:22:57;102157.03;;;16.24;81.99
81125;BME280;72192;52.114;5.424;2023-08-17T03:25:45;102156.50;;;16.20;81.76
81125;BME280;72192;52.114;5.424;2023-08-17T03:28:33;102140.31;;;16.19;81.32
81125;BME280;72192;52.114;5.424;2023-08-17T03:31:22;102148.66;;;16.17;82.15
81125;BME280;72192;52.114;5.424;2023-08-17T03:34:10;102152.25;;;16.18;81.96
81125;BME280;72192;52.114;5.424;2023-08-17T03:36:58;102157.34;;;16.21;81.27
81125;BME280;72192;52.114;5.424;2023-08-17T03:39:46;102159.94;;;16.22;81.85
81125;BME280;72192;52.114;5.424;2023-08-17T03:42:34;102150.88;;;16.22;81.31
81125;BME280;72192;52.114;5.424;2023-08-17T03:45:22;102151.22;;;16.19;82.14
81125;BME280;72192;52.114;5.424;2023-08-17T03:48:10;102149.50;;;16.18;81.73
81125;BME280;72192;52.114;5.424;2023-08-17T03:50:59;102150.38;;;16.18;81.78
81125;BME280;72192;52.114;5.424;2023-08-17T03:53:48;102146.97;;;16.16;81.77
81125;BME280;72192;52.114;5.424;2023-08-17T03:56:36;102154.13;;;16.17;81.43
81125;BME280;72192;52.114;5.424;2023-08-17T03:59:24;102149.00;;;16.14;82.05
81125;BME280;72192;52.114;5.424;2023-08-17T04:02:12;102143.88;;;16.11;81.70
81125;BME280;72192;52.114;5.424;2023-08-17T04:05:03;102143.88;;;16.11;82.03
81125;BME280;72192;52.114;5.424;2023-08-17T04:07:51;102151.19;;;16.11;82.33
81125;BME280;72192;52.114;5.424;2023-08-17T04:10:39;102158.53;;;16.10;81.90
81125;BME280;72192;52.114;5.424;2023-08-17T04:13:27;102153.75;;;16.12;82.33
81125;BME280;72192;52.114;5.424;2023-08-17T04:16:15;102151.19;;;16.11;81.77
81125;BME280;72192;52.114;5.424;2023-08-17T04:19:03;102156.13;;;16.07;82.26
81125;BME280;72192;52.114;5.424;2023-08-17T04:21:51;102148.81;;;16.08;81.89
81125;BME280;72192;52.114;5.424;2023-08-17T04:24:39;102151.38;;;16.09;81.56
81125;BME280;72192;52.114;5.424;2023-08-17T04:27:27;102145.06;;;16.09;81.99
81125;BME280;72192;52.114;5.424;2023-08-17T04:30:15;102146.25;;;16.06;81.97
81125;BME280;72192;52.114;5.424;2023-08-17T04:33:04;102146.78;;;16.10;81.39
81125;BME280;72192;52.114;5.424;2023-08-17T04:35:55;102149.50;;;16.10;82.25
81125;BME280;72192;52.114;5.424;2023-08-17T04:38:45;102151.72;;;16.06;82.04
81125;BME280;72192;52.114;5.424;2023-08-17T04:41:33;102140.66;;;16.08;81.75
81125;BME280;72192;52.114;5.424;2023-08-17T04:44:21;102145.06;;;16.09;82.06
81125;BME280;72192;52.114;5.424;2023-08-17T04:47:09;102142.34;;;16.09;81.40
81125;BME280;72192;52.114;5.424;2023-08-17T04:49:57;102143.88;;;16.11;81.83
81125;BME280;72192;52.114;5.424;2023-08-17T04:52:45;102150.38;;;16.18;81.36
81125;BME280;72192;52.114;5.424;2023-08-17T04:55:26;102147.16;;;16.23;81.63
81125;BME280;72192;52.114;5.424;2023-08-17T04:58:14;102145.94;;;16.25;80.83
81125;BME280;72192;52.114;5.424;2023-08-17T05:01:02;102148.69;;;16.25;80.82
81125;BME280;72192;52.114;5.424;2023-08-17T05:03:50;102148.84;;;16.24;80.95
81125;BME280;72192;52.114;5.424;2023-08-17T05:06:38;102140.50;;;16.25;81.31
81125;BME280;72192;52.114;5.424;2023-08-17T05:09:26;102138.81;;;16.24;81.21
81125;BME280;72192;52.114;5.424;2023-08-17T05:12:15;102140.84;;;16.22;81.26
81125;BME280;72192;52.114;5.424;2023-08-17T05:15:03;102141.34;;;16.26;81.17
81125;BME280;72192;52.114;5.424;2023-08-17T05:17:51;102139.13;;;16.29;81.00
81125;BME280;72192;52.114;5.424;2023-08-17T05:20:39;102139.81;;;16.31;81.02
81125;BME280;72192;52.114;5.424;2023-08-17T05:23:28;102136.94;;;16.33;80.64
81125;BME280;72192;52.114;5.424;2023-08-17T05:26:17;102138.97;;;16.39;81.06
81125;BME280;72192;52.114;5.424;2023-08-17T05:29:05;102139.31;;;16.44;80.52
81125;BME280;72192;52.114;5.424;2023-08-17T05:31:53;102145.94;;;16.50;80.25
81125;BME280;72192;52.114;5.424;2023-08-17T05:34:41;102140.84;;;16.55;80.33
81125;BME280;72192;52.114;5.424;2023-08-17T05:37:28;102144.94;;;16.67;80.14
81125;BME280;72192;52.114;5.424;2023-08-17T05:40:17;102137.81;;;16.82;80.02
81125;BME280;72192;52.114;5.424;2023-08-17T05:43:05;102141.16;;;17.01;79.66
81125;BME280;72192;52.114;5.424;2023-08-17T05:45:53;102143.00;;;17.16;79.08
81125;BME280;72192;52.114;5.424;2023-08-17T05:48:41;102139.59;;;17.23;78.63
81125;BME280;72192;52.114;5.424;2023-08-17T05:51:29;102136.97;;;17.37;78.29
81125;BME280;72192;52.114;5.424;2023-08-17T05:54:18;102144.44;;;17.52;78.13
81125;BME280;72192;52.114;5.424;2023-08-17T05:57:07;102143.19;;;18.24;75.68
81125;BME280;72192;52.114;5.424;2023-08-17T05:59:56;102149.94;;;19.12;71.88
81125;BME280;72192;52.114;5.424;2023-08-17T06:02:45;102155.69;;;19.46;70.44
81125;BME280;72192;52.114;5.424;2023-08-17T06:05:31;102158.81;;;19.14;71.50
81125;BME280;72192;52.114;5.424;2023-08-17T06:08:15;102158.25;;;19.48;69.98
81125;BME280;72192;52.114;5.424;2023-08-17T06:10:54;102166.84;;;19.30;70.24
81125;BME280;72192;52.114;5.424;2023-08-17T06:13:34;102171.28;;;19.31;70.32
81125;BME280;72192;52.114;5.424;2023-08-17T06:16:14;102176.66;;;19.25;70.33
81125;BME280;72192;52.114;5.424;2023-08-17T06:19:04;102181.31;;;18.86;71.71
81125;BME280;72192;52.114;5.424;2023-08-17T06:21:54;102173.31;;;18.62;72.51
81125;BME280;72192;52.114;5.424;2023-08-17T06:24:34;102171.44;;;18.40;73.59
81125;BME280;72192;52.114;5.424;2023-08-17T06:27:24;102173.13;;;18.18;73.96
81125;BME280;72192;52.114;5.424;2023-08-17T06:30:04;102175.56;;;18.13;74.88
81125;BME280;72192;52.114;5.424;2023-08-17T06:32:50;102175.59;;;18.04;74.49
81125;BME280;72192;52.114;5.424;2023-08-17T06:35:30;102181.13;;;17.96;75.58
81125;BME280;72192;52.114;5.424;2023-08-17T06:38:20;102177.34;;;17.97;75.71
81125;BME280;72192;52.114;5.424;2023-08-17T06:41:06;102180.63;;;17.93;75.62
81125;BME280;72192;52.114;5.424;2023-08-17T06:43:45;102178.78;;;17.85;75.47
81125;BME280;72192;52.114;5.424;2023-08-17T06:46:27;102181.78;;;17.98;75.67
81125;BME280;72192;52.114;5.424;2023-08-17T06:49:15;102182.28;;;18.02;76.36
81125;BME280;72192;52.114;5.424;2023-08-17T06:51:57;102173.75;;;17.97;75.98
81125;BME280;72192;52.114;5.424;2023-08-17T06:54:51;102182.09;;;18.03;76.02
81125;BME280;72192;52.114;5.424;2023-08-17T06:57:33;102173.91;;;18.03;75.63
81125;BME280;72192;52.114;5.424;2023-08-17T07:00:13;102180.88;;;18.06;75.74
81125;BME280;72192;52.114;5.424;2023-08-17T07:02:53;102183.75;;;18.13;75.67
81125;BME280;72192;52.114;5.424;2023-08-17T07:05:33;102182.16;;;18.18;76.14
81125;BME280;72192;52.114;5.424;2023-08-17T07:08:22;102182.63;;;18.30;75.55
81125;BME280;72192;52.114;5.424;2023-08-17T07:11:12;102188.38;;;18.35;74.79
81125;BME280;72192;52.114;5.424;2023-08-17T07:13:59;102186.31;;;18.37;74.57
81125;BME280;72192;52.114;5.424;2023-08-17T07:16:38;102178.50;;;18.34;75.40
81125;BME280;72192;52.114;5.424;2023-08-17T07:19:18;102183.72;;;18.44;74.78
81125;BME280;72192;52.114;5.424;2023-08-17T07:22:01;102178.00;;;18.53;74.13
81125;BME280;72192;52.114;5.424;2023-08-17T07:24:44;102182.91;;;18.58;73.75
81125;BME280;72192;52.114;5.424;2023-08-17T07:27:24;102181.31;;;18.72;73.39
81125;BME280;72192;52.114;5.424;2023-08-17T07:30:05;102188.16;;;18.90;73.43
81125;BME280;72192;52.114;5.424;2023-08-17T07:32:54;102185.72;;;19.10;72.76
81125;BME280;72192;52.114;5.424;2023-08-17T07:35:41;102182.44;;;19.30;71.81
81125;BME280;72192;52.114;5.424;2023-08-17T07:38:44;102189.31;;;19.55;71.81
81125;BME280;72192;52.114;5.424;2023-08-17T07:41:33;102177.59;;;19.91;70.17
81125;BME280;72192;52.114;5.424;2023-08-17T07:44:21;102172.00;;;19.99;69.70
81125;BME280;72192;52.114;5.424;2023-08-17T07:47:08;102179.63;;;20.40;69.34
81125;BME280;72192;52.114;5.424;2023-08-17T07:49:56;102174.34;;;20.81;68.26
81125;BME280;72192;52.114;5.424;2023-08-17T07:52:48;102173.22;;;21.03;66.63
81125;BME280;72192;52.114;5.424;2023-08-17T07:55:38;102175.13;;;21.03;65.77
81125;BME280;72192;52.114;5.424;2023-08-17T07:58:26;102172.41;;;20.75;66.13
81125;BME280;72192;52.114;5.424;2023-08-17T08:01:06;102181.34;;;20.62;67.07
81125;BME280;72192;52.114;5.424;2023-08-17T08:03:56;102187.81;;;20.54;66.61
81125;BME280;72192;52.114;5.424;2023-08-17T08:06:45;102192.25;;;20.77;66.50
81125;BME280;72192;52.114;5.424;2023-08-17T08:09:34;102186.16;;;20.81;66.77
81125;BME280;72192;52.114;5.424;2023-08-17T08:12:24;102186.50;;;20.72;66.99
81125;BME280;72192;52.114;5.424;2023-08-17T08:15:15;102183.19;;;20.76;66.56
81125;BME280;72192;52.114;5.424;2023-08-17T08:18:04;102178.13;;;20.80;66.69
81125;BME280;72192;52.114;5.424;2023-08-17T08:20:48;102181.72;;;20.80;66.52
81125;BME280;72192;52.114;5.424;2023-08-17T08:23:37;102180.34;;;20.91;66.87
81125;BME280;72192;52.114;5.424;2023-08-17T08:26:25;102183.38;;;21.03;66.77
81125;BME280;72192;52.114;5.424;2023-08-17T08:29:08;102172.50;;;21.16;65.95
81125;BME280;72192;52.114;5.424;2023-08-17T08:31:48;102174.50;;;21.01;65.41
81125;BME280;72192;52.114;5.424;2023-08-17T08:34:33;102178.47;;;20.70;66.63
81125;BME280;72192;52.114;5.424;2023-08-17T08:37:20;102172.41;;;20.53;67.57
81125;BME280;72192;52.114;5.424;2023-08-17T08:40:01;102180.78;;;20.67;67.41
81125;BME280;72192;52.114;5.424;2023-08-17T08:42:45;102187.81;;;20.76;67.64
81125;BME280;72192;52.114;5.424;2023-08-17T08:45:36;102184.69;;;20.79;67.17
81125;BME280;72192;52.114;5.424;2023-08-17T08:48:29;102173.91;;;20.77;67.46
81125;BME280;72192;52.114;5.424;2023-08-17T08:51:27;102178.56;;;20.83;66.76
81125;BME280;72192;52.114;5.424;2023-08-17T08:54:14;102169.44;;;20.76;66.81
81125;BME280;72192;52.114;5.424;2023-08-17T08:57:12;102177.78;;;20.89;67.10
81125;BME280;72192;52.114;5.424;2023-08-17T08:59:53;102180.69;;;20.81;65.76
81125;BME280;72192;52.114;5.424;2023-08-17T09:02:25;102174.97;;;20.83;67.11
81125;BME280;72192;52.114;5.424;2023-08-17T09:05:13;102168.50;;;20.90;66.27
81125;BME280;72192;52.114;5.424;2023-08-17T09:08:02;102168.78;;;21.02;66.34
81125;BME280;72192;52.114;5.424;2023-08-17T09:10:52;102168.38;;;21.27;66.50
81125;BME280;72192;52.114;5.424;2023-08-17T09:13:40;102168.00;;;21.36;65.30
81125;BME280;72192;52.114;5.424;2023-08-17T09:16:28;102157.94;;;21.50;65.28
81125;BME280;72192;52.114;5.424;2023-08-17T09:19:18;102155.72;;;21.73;65.23
81125;BME280;72192;52.114;5.424;2023-08-17T09:22:08;102156.44;;;21.95;63.89
81125;BME280;72192;52.114;5.424;2023-08-17T09:24:56;102156.63;;;21.87;63.70
81125;BME280;72192;52.114;5.424;2023-08-17T09:27:44;102143.88;;;21.73;64.93
81125;BME280;72192;52.114;5.424;2023-08-17T09:30:32;102152.31;;;21.71;65.13
81125;BME280;72192;52.114;5.424;2023-08-17T09:33:22;102148.47;;;21.59;65.12
81125;BME280;72192;52.114;5.424;2023-08-17T09:36:11;102145.22;;;21.49;65.84
81125;BME280;72192;52.114;5.424;2023-08-17T09:38:59;102144.69;;;21.67;64.88
81125;BME280;72192;52.114;5.424;2023-08-17T09:41:48;102148.31;;;21.74;64.50
81125;BME280;72192;52.114;5.424;2023-08-17T09:44:37;102151.75;;;21.89;64.63
81125;BME280;72192;52.114;5.424;2023-08-17T09:47:26;102138.69;;;22.04;63.02
81125;BME280;72192;52.114;5.424;2023-08-17T09:50:14;102138.53;;;22.13;63.92
81125;BME280;72192;52.114;5.424;2023-08-17T09:53:15;102142.16;;;22.26;63.58
81125;BME280;72192;52.114;5.424;2023-08-17T09:56:06;102137.91;;;22.30;62.12
81125;BME280;72192;52.114;5.424;2023-08-17T09:58:55;102131.13;;;22.26;62.50
81125;BME280;72192;52.114;5.424;2023-08-17T10:01:44;102137.25;;;22.15;64.07
81125;BME280;72192;52.114;5.424;2023-08-17T10:04:35;102132.59;;;22.16;63.65
81125;BME280;72192;52.114;5.424;2023-08-17T10:07:30;102131.97;;;22.14;63.92
81125;BME280;72192;52.114;5.424;2023-08-17T10:10:29;102128.56;;;22.12;64.16
81125;BME280;72192;52.114;5.424;2023-08-17T10:13:34;102118.78;;;21.96;63.96
81125;BME280;72192;52.114;5.424;2023-08-17T10:16:36;102111.53;;;21.88;64.29
81125;BME280;72192;52.114;5.424;2023-08-17T10:19:37;102109.66;;;22.02;63.17
81125;BME280;72192;52.114;5.424;2023-08-17T10:22:49;102121.88;;;21.73;65.37
81125;BME280;72192;52.114;5.424;2023-08-17T10:25:42;102120.38;;;21.70;65.48
81125;BME280;72192;52.114;5.424;2023-08-17T10:28:32;102123.16;;;21.77;65.11
81125;BME280;72192;52.114;5.424;2023-08-17T10:31:24;102111.78;;;21.93;64.54
81125;BME280;72192;52.114;5.424;2023-08-17T10:34:13;102113.53;;;21.53;64.78
81125;BME280;72192;52.114;5.424;2023-08-17T10:37:03;102106.78;;;21.62;64.75
81125;BME280;72192;52.114;5.424;2023-08-17T10:40:11;102110.63;;;21.68;65.24
81125;BME280;72192;52.114;5.424;2023-08-17T10:43:00;102118.22;;;21.59;65.67
81125;BME280;72192;52.114;5.424;2023-08-17T10:45:40;102113.56;;;21.60;65.36
81125;BME280;72192;52.114;5.424;2023-08-17T10:48:28;102116.56;;;21.71;65.76
81125;BME280;72192;52.114;5.424;2023-08-17T10:51:11;102116.38;;;21.73;65.52
81125;BME280;72192;52.114;5.424;2023-08-17T10:54:04;102122.50;;;21.82;65.20
81125;BME280;72192;52.114;5.424;2023-08-17T10:56:53;102125.75;;;21.98;64.25
81125;BME280;72192;52.114;5.424;2023-08-17T10:59:43;102120.22;;;21.92;63.66
81125;BME280;72192;52.114;5.424;2023-08-17T11:02:32;102114.94;;;21.90;65.30
81125;BME280;72192;52.114;5.424;2023-08-17T11:05:43;102111.56;;;21.95;65.13
81125;BME280;72192;52.114;5.424;2023-08-17T11:08:53;102110.03;;;21.31;66.26
81125;BME280;72192;52.114;5.424;2023-08-17T11:11:52;102101.69;;;21.18;67.41
81125;BME280;72192;52.114;5.424;2023-08-17T11:14:35;102113.06;;;21.08;67.38
81125;BME280;72192;52.114;5.424;2023-08-17T11:17:15;102118.00;;;20.91;68.50
81125;BME280;72192;52.114;5.424;2023-08-17T11:19:55;102107.91;;;20.99;69.11
81125;BME280;72192;52.114;5.424;2023-08-17T11:22:46;102112.56;;;21.26;67.25
81125;BME280;72192;52.114;5.424;2023-08-17T11:25:33;102108.09;;;21.25;66.62
81125;BME280;72192;52.114;5.424;2023-08-17T11:28:16;102112.91;;;21.16;67.90
81125;BME280;72192;52.114;5.424;2023-08-17T11:30:58;102105.69;;;21.43;67.27
81125;BME280;72192;52.114;5.424;2023-08-17T11:33:49;102114.09;;;21.42;67.83
81125;BME280;72192;52.114;5.424;2023-08-17T11:36:37;102121.38;;;21.63;66.62
81125;BME280;72192;52.114;5.424;2023-08-17T11:39:17;102117.88;;;21.75;65.26
81125;BME280;72192;52.114;5.424;2023-08-17T11:42:07;102112.25;;;21.49;65.78
81125;BME280;72192;52.114;5.424;2023-08-17T11:44:48;102108.97;;;21.32;67.01
81125;BME280;72192;52.114;5.424;2023-08-17T11:47:32;102109.53;;;21.56;66.76
81125;BME280;72192;52.114;5.424;2023-08-17T11:50:20;102109.16;;;21.65;67.31
81125;BME280;72192;52.114;5.424;2023-08-17T11:52:49;102108.63;;;22.03;66.20
81125;BME280;72192;52.114;5.424;2023-08-17T11:55:32;102106.75;;;22.10;64.93
81125;BME280;72192;52.114;5.424;2023-08-17T11:58:36;102096.69;;;21.76;65.84
81125;BME280;72192;52.114;5.424;2023-08-17T12:01:32;102105.47;;;21.52;66.52
81125;BME280;72192;52.114;5.424;2023-08-17T12:04:22;102101.63;;;21.39;67.46
81125;BME280;72192;52.114;5.424;2023-08-17T12:07:05;102100.94;;;21.31;66.46
81125;BME280;72192;52.114;5.424;2023-08-17T12:09:46;102095.59;;;21.23;66.96
81125;BME280;72192;52.114;5.424;2023-08-17T12:12:39;102093.50;;;21.25;68.17
81125;BME280;72192;52.114;5.424;2023-08-17T12:15:19;102100.34;;;21.35;66.83
81125;BME280;72192;52.114;5.424;2023-08-17T12:18:03;102095.03;;;21.27;67.38
81125;BME280;72192;52.114;5.424;2023-08-17T12:20:53;102099.81;;;21.18;68.14
81125;BME280;72192;52.114;5.424;2023-08-17T12:23:42;102091.69;;;21.38;67.97
81125;BME280;72192;52.114;5.424;2023-08-17T12:26:30;102097.03;;;21.46;66.77
81125;BME280;72192;52.114;5.424;2023-08-17T12:29:21;102101.66;;;21.46;67.22
81125;BME280;72192;52.114;5.424;2023-08-17T12:32:04;102101.06;;;21.57;67.14
81125;BME280;72192;52.114;5.424;2023-08-17T12:34:52;102093.81;;;21.43;67.06
81125;BME280;72192;52.114;5.424;2023-08-17T12:37:40;102093.88;;;21.15;67.66
81125;BME280;72192;52.114;5.424;2023-08-17T12:40:29;102099.53;;;21.13;68.20
81125;BME280;72192;52.114;5.424;2023-08-17T12:43:17;102098.16;;;21.24;68.74
81125;BME280;72192;52.114;5.424;2023-08-17T12:46:05;102101.72;;;20.90;68.49
81125;BME280;72192;52.114;5.424;2023-08-17T12:48:53;102108.78;;;20.71;70.24
81125;BME280;72192;52.114;5.424;2023-08-17T12:51:34;102108.47;;;20.59;70.23
81125;BME280;72192;52.114;5.424;2023-08-17T12:54:18;102102.72;;;20.82;70.50
81125;BME280;72192;52.114;5.424;2023-08-17T12:57:04;102107.44;;;20.88;69.20
81125;BME280;72192;52.114;5.424;2023-08-17T12:59:52;102104.34;;;20.98;68.95
81125;BME280;72192;52.114;5.424;2023-08-17T13:02:43;102112.22;;;21.08;69.37
81125;BME280;72192;52.114;5.424;2023-08-17T13:05:33;102109.03;;;21.04;69.89
81125;BME280;72192;52.114;5.424;2023-08-17T13:08:21;102102.00;;;20.95;70.03
81125;BME280;72192;52.114;5.424;2023-08-17T13:11:10;102107.03;;;20.91;70.15
81125;BME280;72192;52.114;5.424;2023-08-17T13:13:58;102106.94;;;21.06;69.96
81125;BME280;72192;52.114;5.424;2023-08-17T13:16:46;102101.78;;;21.31;69.16
81125;BME280;72192;52.114;5.424;2023-08-17T13:19:35;102100.78;;;21.39;68.18
81125;BME280;72192;52.114;5.424;2023-08-17T13:22:25;102099.31;;;21.36;68.90
81125;BME280;72192;52.114;5.424;2023-08-17T13:25:13;102101.25;;;21.49;68.23
81125;BME280;72192;52.114;5.424;2023-08-17T13:28:02;102093.25;;;21.54;67.45
81125;BME280;72192;52.114;5.424;2023-08-17T13:30:50;102101.78;;;21.31;67.90
81125;BME280;72192;52.114;5.424;2023-08-17T13:33:39;102105.59;;;21.30;68.71
81125;BME280;72192;52.114;5.424;2023-08-17T13:36:27;102107.75;;;21.35;68.89
81125;BME280;72192;52.114;5.424;2023-08-17T13:39:15;102101.56;;;21.26;69.22
81125;BME280;72192;52.114;5.424;2023-08-17T13:42:04;102099.91;;;21.32;68.29
81125;BME280;72192;52.114;5.424;2023-08-17T13:44:32;102101.38;;;21.28;68.54
81125;BME280;72192;52.114;5.424;2023-08-17T13:47:20;102095.38;;;21.17;69.01
81125;BME280;72192;52.114;5.424;2023-08-17T13:50:09;102093.31;;;21.26;68.80
81125;BME280;72192;52.114;5.424;2023-08-17T13:52:57;102092.19;;;21.20;68.70
81125;BME280;72192;52.114;5.424;2023-08-17T13:55:47;102087.34;;;21.23;69.68
81125;BME280;72192;52.114;5.424;2023-08-17T13:58:35;102083.63;;;21.30;69.48
81125;BME280;72192;52.114;5.424;2023-08-17T14:01:23;102074.56;;;21.36;69.36
81125;BME280;72192;52.114;5.424;2023-08-17T14:04:11;102076.03;;;21.39;68.36
81125;BME280;72192;52.114;5.424;2023-08-17T14:07:00;102071.81;;;21.43;68.62
81125;BME280;72192;52.114;5.424;2023-08-17T14:09:49;102072.88;;;21.42;68.70
81125;BME280;72192;52.114;5.424;2023-08-17T14:12:37;102068.69;;;21.53;68.69
81125;BME280;72192;52.114;5.424;2023-08-17T14:15:25;102077.22;;;21.71;68.50
81125;BME280;72192;52.114;5.424;2023-08-17T14:18:13;102067.69;;;21.67;67.99
81125;BME280;72192;52.114;5.424;2023-08-17T14:20:56;102064.53;;;21.63;69.13
81125;BME280;72192;52.114;5.424;2023-08-17T14:23:38;102061.50;;;21.52;67.84
81125;BME280;72192;52.114;5.424;2023-08-17T14:26:18;102073.75;;;21.08;69.96
81125;BME280;72192;52.114;5.424;2023-08-17T14:28:58;102070.41;;;20.78;70.44
81125;BME280;72192;52.114;5.424;2023-08-17T14:31:37;102072.53;;;20.82;71.42
81125;BME280;72192;52.114;5.424;2023-08-17T14:34:17;102073.00;;;20.86;71.14
81125;BME280;72192;52.114;5.424;2023-08-17T14:36:57;102066.28;;;20.95;71.31
81125;BME280;72192;52.114;5.424;2023-08-17T14:39:37;102058.56;;;20.77;71.54